Time;durP1;ratioP1;P1;durP2;ratioP2;P2;SDS_P1;SDS_P2;PMS_P1;PMS_P2;Temp;Humidity;BMP_temperature;BMP_pressure;BME280_temperature;BME280_humidity;BME280_pressure;Samples;Min_cycle;Max_cycle;Signal;HPM_P1;HPM_P2
2023/07/30 00:02:20;;;;;;;19.55;2.72;;;;;;;13.93;100.00;99504.66;5057779;28;20437;-82
2023/07/30 00:04:46;;;;;;;12.60;2.30;;;;;;;13.94;100.00;99498.34;5028764;28;20071;-81
2023/07/30 00:07:13;;;;;;;13.70;2.38;;;;;;;13.95;100.00;99497.34;5047535;28;20041;-82
2023/07/30 00:09:39;;;;;;;10.93;2.22;;;;;;;13.97;100.00;99488.16;5047073;28;20036;-81
2023/07/30 00:12:06;;;;;;;14.10;2.40;;;;;;;13.99;100.00;99502.09;5064613;28;20068;-80
2023/07/30 00:14:32;;;;;;;15.20;2.78;;;;;;;13.98;100.00;99494.31;5046469;28;20036;-82
2023/07/30 00:16:58;;;;;;;10.90;2.30;;;;;;;13.96;100.00;99507.78;5056779;28;20555;-82
2023/07/30 00:19:24;;;;;;;14.75;2.10;;;;;;;13.92;100.00;99516.31;5039419;28;20053;-82
2023/07/30 00:21:50;;;;;;;10.25;1.60;;;;;;;13.88;100.00;99510.56;5054961;28;20059;-82
2023/07/30 00:24:16;;;;;;;15.45;2.28;;;;;;;13.85;100.00;99513.59;5050742;28;20025;-81
2023/07/30 00:26:41;;;;;;;15.05;2.20;;;;;;;13.83;100.00;99512.94;5062070;28;20035;-82
2023/07/30 00:29:07;;;;;;;14.48;2.53;;;;;;;13.78;100.00;99510.84;5039915;28;20379;-81
2023/07/30 00:31:33;;;;;;;11.80;1.88;;;;;;;13.82;100.00;99511.31;5064048;28;20052;-80
2023/07/30 00:33:59;;;;;;;14.50;1.90;;;;;;;13.81;100.00;99509.66;5061631;28;20146;-81
2023/07/30 00:36:25;;;;;;;11.35;2.05;;;;;;;13.87;100.00;99520.34;5067266;28;20067;-82
2023/07/30 00:38:51;;;;;;;14.98;2.17;;;;;;;13.88;100.00;99519.34;5065658;28;20390;-81
2023/07/30 00:41:17;;;;;;;13.75;1.80;;;;;;;13.93;100.00;99521.44;5059075;28;20037;-80
2023/07/30 00:43:43;;;;;;;14.43;2.28;;;;;;;13.99;100.00;99520.69;5045939;28;20067;-82
2023/07/30 00:46:09;;;;;;;11.18;2.08;;;;;;;14.00;100.00;99519.66;5045788;28;20397;-81
2023/07/30 00:48:36;;;;;;;9.23;1.73;;;;;;;14.00;100.00;99519.66;5064935;28;20107;-81
2023/07/30 00:51:02;;;;;;;14.32;2.58;;;;;;;14.01;100.00;99517.84;5060339;28;20040;-81
2023/07/30 00:53:28;;;;;;;15.93;2.28;;;;;;;14.01;100.00;99525.81;5066018;28;20167;-82
2023/07/30 00:55:54;;;;;;;8.23;1.88;;;;;;;14.01;100.00;99520.50;5057153;28;20115;-81
2023/07/30 00:58:21;;;;;;;13.95;1.77;;;;;;;14.01;100.00;99525.81;5068065;28;20966;-82
2023/07/30 01:00:47;;;;;;;12.77;1.60;;;;;;;14.02;100.00;99530.09;5044476;28;20036;-81
2023/07/30 01:03:14;;;;;;;8.10;1.17;;;;;;;14.01;100.00;99531.13;5060331;28;20109;-82
2023/07/30 01:05:40;;;;;;;11.75;2.65;;;;;;;14.04;100.00;99519.28;5060154;28;20059;-81
2023/07/30 01:08:05;;;;;;;7.18;1.60;;;;;;;14.06;100.00;99536.69;5062217;28;20483;-80
2023/07/30 01:10:32;;;;;;;10.63;1.60;;;;;;;14.07;100.00;99543.63;5065598;28;20033;-79
2023/07/30 01:13:03;;;;;;;11.57;1.50;;;;;;;14.12;100.00;99548.38;5045017;28;20032;-81
2023/07/30 01:15:30;;;;;;;10.88;2.30;;;;;;;14.06;100.00;99539.34;5060755;28;20028;-80
2023/07/30 01:17:56;;;;;;;9.18;1.60;;;;;;;14.05;100.00;99543.00;5066549;28;20057;-81
2023/07/30 01:20:22;;;;;;;15.70;1.70;;;;;;;14.07;100.00;99543.63;5082059;28;20383;-80
2023/07/30 01:22:48;;;;;;;13.55;1.75;;;;;;;14.07;100.00;99543.63;5101044;27;20029;-81
2023/07/30 01:25:18;;;;;;;10.38;1.52;;;;;;;14.10;100.00;99545.09;5101803;28;20123;-81
2023/07/30 01:27:50;;;;;;;9.38;2.03;;;;;;;14.07;100.00;99540.97;5085485;28;20085;-80
2023/07/30 01:30:26;;;;;;;11.38;2.00;;;;;;;14.10;100.00;99540.59;5086161;28;20025;-80
2023/07/30 01:32:53;;;;;;;9.00;1.52;;;;;;;14.07;100.00;99543.63;5064528;28;20049;-81
2023/07/30 01:35:24;;;;;;;13.45;1.83;;;;;;;14.11;100.00;99536.91;5086276;28;20040;-81
2023/07/30 01:37:51;;;;;;;15.50;1.55;;;;;;;14.10;100.00;99542.44;5088122;28;20092;-80
2023/07/30 01:40:17;;;;;;;11.63;1.75;;;;;;;14.10;100.00;99545.09;5080186;28;20049;-80
2023/07/30 01:42:43;;;;;;;15.02;2.20;;;;;;;14.11;100.00;99542.22;5064338;28;20036;-81
2023/07/30 01:45:09;;;;;;;12.77;1.77;;;;;;;14.13;100.00;99544.69;5085506;28;20062;-81
2023/07/30 01:47:34;;;;;;;7.68;1.75;;;;;;;14.14;100.00;99539.19;5056329;28;20047;-81
2023/07/30 01:50:00;;;;;;;10.60;1.63;;;;;;;14.12;100.00;99543.06;5066284;28;20131;-81
2023/07/30 01:52:26;;;;;;;6.88;1.42;;;;;;;14.12;100.00;99551.88;5079043;28;20056;-81
2023/07/30 01:54:52;;;;;;;11.35;1.58;;;;;;;14.10;100.00;99550.41;5083345;28;20051;-81
2023/07/30 01:57:18;;;;;;;11.93;1.83;;;;;;;14.07;100.00;99548.94;5096764;28;20409;-81
2023/07/30 01:59:44;;;;;;;9.93;1.67;;;;;;;14.10;100.00;99551.22;5067635;28;20036;-81
2023/07/30 02:02:10;;;;;;;11.25;1.50;;;;;;;14.12;100.00;99546.56;5058189;28;20521;-81
2023/07/30 02:04:35;;;;;;;11.50;1.30;;;;;;;14.11;100.00;99550.22;5087305;28;20036;-81
2023/07/30 02:07:01;;;;;;;6.30;1.00;;;;;;;14.11;100.00;99547.56;5073009;28;20036;-81
2023/07/30 02:09:27;;;;;;;7.50;1.08;;;;;;;14.12;100.00;99559.84;5086398;28;20036;-80
2023/07/30 02:11:53;;;;;;;9.98;1.10;;;;;;;14.12;100.00;99548.38;5080674;28;20086;-80
2023/07/30 02:14:19;;;;;;;8.52;1.00;;;;;;;14.13;100.00;99553.50;5087737;28;20048;-81
2023/07/30 02:16:46;;;;;;;9.43;1.67;;;;;;;14.12;100.00;99557.19;5065546;28;20393;-81
2023/07/30 02:19:12;;;;;;;8.55;1.90;;;;;;;14.10;100.00;99553.06;5052495;28;20036;-82
2023/07/30 02:21:42;;;;;;;9.27;1.13;;;;;;;14.10;100.00;99555.72;5067234;28;20028;-81
2023/07/30 02:24:11;;;;;;;10.73;1.40;;;;;;;14.10;100.00;99558.38;5043850;28;20761;-81
2023/07/30 02:26:37;;;;;;;8.65;1.05;;;;;;;14.07;100.00;99548.13;5059251;28;20039;-81
2023/07/30 02:29:03;;;;;;;17.92;3.97;;;;;;;14.05;100.00;99558.13;5068128;28;20378;-81
2023/07/30 02:31:28;;;;;;;4.93;0.95;;;;;;;14.04;100.00;99562.63;5043938;28;20040;-81
2023/07/30 02:33:54;;;;;;;8.88;1.10;;;;;;;14.05;100.00;99563.44;5052682;28;20116;-82
2023/07/30 02:36:20;;;;;;;10.32;1.23;;;;;;;14.07;100.00;99572.88;5063902;28;20792;-81
2023/07/30 02:38:46;;;;;;;7.80;0.80;;;;;;;14.05;100.00;99574.09;5063695;28;20033;-81
2023/07/30 02:41:12;;;;;;;6.50;0.77;;;;;;;14.06;100.00;99584.53;5041232;28;20108;-81
2023/07/30 02:43:38;;;;;;;9.77;1.23;;;;;;;13.98;100.00;99581.97;5042574;28;20032;-81
2023/07/30 02:46:04;;;;;;;8.00;1.33;;;;;;;13.95;100.00;99574.38;5046266;28;20036;-81
2023/07/30 02:48:30;;;;;;;11.55;1.38;;;;;;;13.92;100.00;99575.56;5044866;28;20541;-81
2023/07/30 02:50:55;;;;;;;6.28;1.02;;;;;;;13.91;100.00;99573.94;5064612;28;20040;-81
2023/07/30 02:53:21;;;;;;;10.27;1.65;;;;;;;13.90;100.00;99582.91;5048813;28;20043;-81
2023/07/30 02:55:47;;;;;;;4.07;1.08;;;;;;;13.90;100.00;99577.59;5065134;28;20434;-80
2023/07/30 02:58:12;;;;;;;6.85;1.38;;;;;;;13.90;100.00;99574.94;5047077;28;20040;-81
2023/07/30 03:00:38;;;;;;;7.05;1.30;;;;;;;13.84;100.00;99573.84;5063428;28;20044;-81
2023/07/30 03:03:04;;;;;;;3.97;0.70;;;;;;;13.78;100.00;99569.28;5065244;28;20024;-80
2023/07/30 03:05:30;;;;;;;8.85;1.10;;;;;;;13.73;100.00;99571.66;5038948;28;20060;-80
2023/07/30 03:07:56;;;;;;;8.48;0.85;;;;;;;13.71;100.00;99560.44;5045258;28;20192;-80
2023/07/30 03:10:22;;;;;;;6.82;1.55;;;;;;;13.71;100.00;99555.13;5053411;28;20151;-80
2023/07/30 03:12:47;;;;;;;5.65;0.82;;;;;;;13.68;100.00;99556.28;5056399;28;20128;-80
2023/07/30 03:15:13;;;;;;;5.57;0.70;;;;;;;13.64;100.00;99550.56;5038566;28;20032;-80
2023/07/30 03:17:39;;;;;;;6.75;0.88;;;;;;;13.59;100.00;99560.06;5071526;28;20048;-80
2023/07/30 03:20:06;;;;;;;6.78;0.98;;;;;;;13.58;100.00;99555.78;5085352;28;20039;-80
2023/07/30 03:22:32;;;;;;;8.10;0.95;;;;;;;13.56;100.00;99561.28;5088207;28;20044;-80
2023/07/30 03:24:58;;;;;;;11.50;0.90;;;;;;;13.55;100.00;99562.31;5069473;28;20103;-81
2023/07/30 03:27:23;;;;;;;5.38;0.95;;;;;;;13.52;100.00;99560.81;5076218;28;20052;-80
2023/07/30 03:29:49;;;;;;;4.57;0.85;;;;;;;13.52;100.00;99566.13;5080458;28;20033;-80
2023/07/30 03:32:15;;;;;;;3.63;0.68;;;;;;;13.52;100.00;99574.09;5084698;28;20107;-80
2023/07/30 03:34:41;;;;;;;5.40;0.80;;;;;;;13.52;100.00;99587.38;5061647;28;20115;-80
2023/07/30 03:37:06;;;;;;;3.00;0.60;;;;;;;13.51;100.00;99583.06;5071678;28;20490;-80
2023/07/30 03:39:32;;;;;;;6.85;0.85;;;;;;;13.57;100.00;99591.31;5073585;28;20028;-80
2023/07/30 03:41:58;;;;;;;5.82;0.80;;;;;;;13.60;100.00;99588.28;5078571;28;20417;-80
2023/07/30 03:44:24;;;;;;;6.45;0.90;;;;;;;13.62;100.00;99587.09;5066200;28;20084;-80
2023/07/30 03:46:50;;;;;;;6.07;0.88;;;;;;;13.65;100.00;99593.84;5081984;28;20039;-80
2023/07/30 03:49:15;;;;;;;11.10;0.77;;;;;;;13.70;100.00;99598.59;5082458;28;20040;-81
2023/07/30 03:51:41;;;;;;;8.23;0.82;;;;;;;13.70;100.00;99588.81;5081721;28;20097;-80
2023/07/30 03:54:07;;;;;;;5.40;1.17;;;;;;;13.75;100.00;99597.06;5086392;28;20036;-80
2023/07/30 03:56:33;;;;;;;3.83;0.70;;;;;;;13.80;100.00;99606.28;5052904;28;20028;-81
2023/07/30 03:58:58;;;;;;;7.95;0.90;;;;;;;13.79;100.00;99608.13;5066290;28;20465;-80
2023/07/30 04:01:24;;;;;;;7.35;1.10;;;;;;;13.82;100.00;99607.75;5080718;28;20033;-80
2023/07/30 04:03:50;;;;;;;5.75;0.70;;;;;;;13.83;100.00;99603.25;5084212;28;20040;-81
2023/07/30 04:06:16;;;;;;;4.03;0.73;;;;;;;13.83;100.00;99600.59;5060572;28;20028;-81
2023/07/30 04:08:42;;;;;;;8.07;0.85;;;;;;;13.82;100.00;99594.47;5082912;28;20062;-80
2023/07/30 04:11:08;;;;;;;9.35;1.02;;;;;;;13.80;100.00;99598.31;5066975;28;20655;-80
2023/07/30 04:13:34;;;;;;;8.05;1.42;;;;;;;13.79;100.00;99589.53;5078945;28;20043;-81
2023/07/30 04:16:00;;;;;;;3.90;0.95;;;;;;;13.80;100.00;99587.69;5081065;28;20044;-81
2023/07/30 04:18:26;;;;;;;4.63;1.00;;;;;;;13.75;100.00;99594.41;5069051;28;20044;-81
2023/07/30 04:20:55;;;;;;;7.00;1.15;;;;;;;13.74;100.00;99587.41;5061584;28;20078;-81
2023/07/30 04:23:21;;;;;;;6.10;0.85;;;;;;;13.68;100.00;99601.44;5064023;28;20029;-80
2023/07/30 04:25:50;;;;;;;9.40;1.20;;;;;;;13.63;100.00;99601.19;5059307;28;20109;-81
2023/07/30 04:28:16;;;;;;;3.30;0.50;;;;;;;13.58;100.00;99611.53;5048309;28;20039;-81
2023/07/30 04:30:42;;;;;;;6.10;0.85;;;;;;;13.57;100.00;99615.22;5065186;28;20112;-80
2023/07/30 04:33:08;;;;;;;6.68;0.80;;;;;;;13.55;100.00;99614.56;5076557;28;20453;-80
2023/07/30 04:35:36;;;;;;;8.85;0.90;;;;;;;13.55;100.00;99612.75;5043316;28;20048;-81
2023/07/30 04:38:02;;;;;;;4.90;0.60;;;;;;;13.56;100.00;99603.75;5040963;28;20039;-81
2023/07/30 04:40:28;;;;;;;6.82;0.70;;;;;;;13.57;100.00;99601.94;5063834;28;20033;-80
2023/07/30 04:42:54;;;;;;;6.53;0.75;;;;;;;13.56;100.00;99602.94;5046113;28;20036;-80
2023/07/30 04:45:19;;;;;;;6.25;0.65;;;;;;;13.56;100.00;99589.66;5062637;28;20339;-80
2023/07/30 04:47:47;;;;;;;6.43;0.80;;;;;;;13.57;100.00;99594.78;5065777;28;20032;-80
2023/07/30 04:50:14;;;;;;;6.32;0.98;;;;;;;13.58;100.00;99599.09;5055919;28;20048;-80
2023/07/30 04:52:40;;;;;;;4.78;0.70;;;;;;;13.57;100.00;99588.66;5030864;28;20402;-80
2023/07/30 04:55:06;;;;;;;5.15;0.68;;;;;;;13.54;100.00;99587.19;5057725;28;20041;-80
2023/07/30 04:57:32;;;;;;;4.00;1.27;;;;;;;13.48;100.00;99593.19;5063801;28;20284;-80
2023/07/30 04:59:57;;;;;;;2.80;0.63;;;;;;;13.47;100.00;99595.03;5066936;28;20550;-80
2023/07/30 05:02:23;;;;;;;5.55;0.90;;;;;;;13.46;100.00;99593.38;5038324;28;20032;-80
2023/07/30 05:04:49;;;;;;;4.22;0.60;;;;;;;13.46;100.00;99597.88;5050389;28;20066;-80
2023/07/30 05:07:15;;;;;;;4.93;0.55;;;;;;;13.44;100.00;99606.00;5063306;28;20029;-79
2023/07/30 05:09:40;;;;;;;4.40;1.00;;;;;;;13.48;100.00;99611.78;5061182;28;20747;-80
2023/07/30 05:12:06;;;;;;;7.57;1.38;;;;;;;13.52;100.00;99613.91;5054239;28;20037;-80
2023/07/30 05:14:32;;;;;;;3.20;0.55;;;;;;;13.54;100.00;99608.41;5061306;28;20082;-80
2023/07/30 05:16:58;;;;;;;2.72;0.60;;;;;;;13.58;100.00;99611.53;5061767;28;20032;-80
2023/07/30 05:19:24;;;;;;;3.45;0.40;;;;;;;13.61;100.00;99605.84;5085382;28;20044;-80
2023/07/30 05:21:49;;;;;;;3.38;0.57;;;;;;;13.66;100.00;99608.78;5064963;28;20048;-80
2023/07/30 05:24:15;;;;;;;5.40;0.63;;;;;;;13.71;100.00;99616.19;5071221;28;20028;-80
2023/07/30 05:26:41;;;;;;;3.70;0.35;;;;;;;13.72;100.00;99613.34;5095857;28;20036;-80
2023/07/30 05:29:06;;;;;;;2.45;0.50;;;;;;;13.72;100.00;99616.00;5061319;28;20097;-80
2023/07/30 05:31:32;;;;;;;5.47;0.60;;;;;;;13.69;100.00;99618.22;5081683;28;20035;-80
2023/07/30 05:33:58;;;;;;;2.63;0.47;;;;;;;13.71;100.00;99624.16;5084895;28;20040;-80
2023/07/30 05:36:24;;;;;;;3.17;0.57;;;;;;;13.73;100.00;99622.97;5059937;28;20486;-80
2023/07/30 05:38:49;;;;;;;5.15;0.60;;;;;;;13.70;100.00;99627.81;5079561;28;20083;-80
2023/07/30 05:41:15;;;;;;;4.70;0.60;;;;;;;13.69;100.00;99629.66;5083925;28;20036;-81
2023/07/30 05:43:41;;;;;;;3.45;1.13;;;;;;;13.67;100.00;99629.00;5072912;28;20032;-80
2023/07/30 05:46:08;;;;;;;3.78;0.70;;;;;;;13.72;100.00;99623.97;5078962;28;20501;-80
2023/07/30 05:48:33;;;;;;;4.25;0.88;;;;;;;13.74;100.00;99626.44;5080871;28;20119;-80
2023/07/30 05:50:59;;;;;;;5.43;0.90;;;;;;;13.74;100.00;99623.78;5041586;28;20025;-80
2023/07/30 05:53:25;;;;;;;3.53;0.68;;;;;;;13.75;100.00;99631.56;5064254;28;20036;-80
2023/07/30 05:55:51;;;;;;;7.22;0.77;;;;;;;13.79;100.00;99631.19;5086566;28;20032;-80
2023/07/30 05:58:16;;;;;;;3.95;0.60;;;;;;;13.81;100.00;99630.00;5041927;28;20032;-80
2023/07/30 06:00:42;;;;;;;4.80;0.77;;;;;;;13.88;100.00;99636.22;5074006;28;20035;-81
2023/07/30 06:03:09;;;;;;;5.82;0.75;;;;;;;13.93;100.00;99637.50;5080406;28;20035;-81
2023/07/30 06:05:41;;;;;;;4.32;0.80;;;;;;;14.01;100.00;99637.38;5083667;28;20037;-81
2023/07/30 06:08:08;;;;;;;3.90;0.50;;;;;;;14.02;100.00;99645.19;5082568;28;20122;-80
2023/07/30 06:10:38;;;;;;;5.07;0.93;;;;;;;14.08;100.00;99642.78;5086238;28;20071;-80
2023/07/30 06:13:05;;;;;;;8.73;0.77;;;;;;;14.07;100.00;99654.41;5084193;28;20040;-81
2023/07/30 06:15:32;;;;;;;6.43;0.75;;;;;;;14.04;100.00;99644.16;5084135;28;20043;-80
2023/07/30 06:17:58;;;;;;;5.32;0.70;;;;;;;13.99;100.00;99640.22;5069365;28;20049;-80
2023/07/30 06:20:23;;;;;;;3.03;0.77;;;;;;;13.98;100.00;99638.56;5059542;28;20021;-81
2023/07/30 06:22:49;;;;;;;5.53;0.73;;;;;;;13.99;100.00;99640.22;5047247;28;20085;-81
2023/07/30 06:25:15;;;;;;;5.50;0.90;;;;;;;13.97;100.00;99636.94;5061246;28;20025;-80
2023/07/30 06:27:41;;;;;;;5.93;1.10;;;;;;;13.97;100.00;99634.28;5062587;28;20506;-81
2023/07/30 06:30:07;;;;;;;3.83;0.95;;;;;;;13.99;100.00;99637.56;5064168;28;20036;-81
2023/07/30 06:32:33;;;;;;;6.05;0.98;;;;;;;14.03;100.00;99630.03;5061685;28;20033;-80
2023/07/30 06:34:59;;;;;;;2.72;0.85;;;;;;;14.09;100.00;99641.75;5029659;28;20036;-81
2023/07/30 06:37:25;;;;;;;5.97;1.00;;;;;;;14.09;100.00;99631.13;5060070;28;20029;-81
2023/07/30 06:39:50;;;;;;;7.03;1.25;;;;;;;14.12;100.00;99639.56;5051824;28;20032;-81
2023/07/30 06:42:16;;;;;;;7.38;1.10;;;;;;;14.18;100.00;99642.47;5067894;28;20035;-81
2023/07/30 06:44:42;;;;;;;6.82;0.95;;;;;;;14.20;100.00;99640.44;5069383;28;20020;-81
2023/07/30 06:47:08;;;;;;;5.38;1.35;;;;;;;14.24;100.00;99642.53;5049680;28;20059;-81
2023/07/30 06:49:34;;;;;;;8.63;1.90;;;;;;;14.27;100.00;99647.47;5048209;28;20029;-81
2023/07/30 06:52:00;;;;;;;9.00;1.42;;;;;;;14.28;100.00;99637.69;5064155;28;20036;-81
2023/07/30 06:54:26;;;;;;;6.95;1.33;;;;;;;14.27;100.00;99634.19;5066601;28;20031;-80
2023/07/30 06:56:51;;;;;;;8.75;1.50;;;;;;;14.27;100.00;99636.84;5048887;28;20036;-80
2023/07/30 06:59:17;;;;;;;11.30;2.03;;;;;;;14.33;100.00;99643.25;5064531;28;20670;-80
2023/07/30 07:01:43;;;;;;;9.35;1.70;;;;;;;14.33;100.00;99651.25;5047897;28;20033;-80
2023/07/30 07:04:09;;;;;;;8.32;1.60;;;;;;;14.35;100.00;99638.56;4994356;28;20033;-80
2023/07/30 07:06:35;;;;;;;7.47;1.23;;;;;;;14.31;100.00;99629.31;5065268;28;21224;-80
2023/07/30 07:09:00;;;;;;;11.90;1.75;;;;;;;14.30;100.00;99632.16;5065604;28;20043;-80
2023/07/30 07:11:26;;;;;;;8.75;1.63;;;;;;;14.33;100.00;99624.66;5063288;28;20499;-80
2023/07/30 07:13:52;;;;;;;6.72;1.58;;;;;;;14.32;100.00;99633.63;5058376;28;20040;-80
2023/07/30 07:16:18;;;;;;;8.13;1.80;;;;;;;14.32;100.00;99638.94;5062489;28;20494;-81
2023/07/30 07:18:44;;;;;;;10.07;1.60;;;;;;;14.32;100.00;99640.75;5074378;28;20048;-80
2023/07/30 07:21:10;;;;;;;13.23;2.22;;;;;;;14.34;100.00;99636.91;5082737;28;20547;-80
2023/07/30 07:23:36;;;;;;;12.52;1.98;;;;;;;14.36;100.00;99642.06;5077833;28;20056;-80
2023/07/30 07:26:02;;;;;;;10.02;2.30;;;;;;;14.36;100.00;99645.53;5071692;28;20048;-81
2023/07/30 07:28:28;;;;;;;9.68;2.50;;;;;;;14.36;100.00;99639.38;5082181;28;20096;-81
2023/07/30 07:30:55;;;;;;;12.85;2.47;;;;;;;14.37;100.00;99639.19;5086597;28;20048;-80
2023/07/30 07:33:21;;;;;;;19.95;2.58;;;;;;;14.39;100.00;99650.47;5083611;28;20032;-81
2023/07/30 07:35:47;;;;;;;17.52;2.47;;;;;;;14.37;100.00;99647.19;5054782;28;20065;-80
2023/07/30 07:38:14;;;;;;;12.55;2.53;;;;;;;14.38;100.00;99648.00;5083141;28;20036;-81
2023/07/30 07:40:40;;;;;;;10.95;2.05;;;;;;;14.35;100.00;99649.19;5081797;28;20548;-81
2023/07/30 07:43:07;;;;;;;10.52;1.92;;;;;;;14.37;100.00;99655.16;5080305;28;20798;-81
2023/07/30 07:45:34;;;;;;;7.68;2.13;;;;;;;14.36;100.00;99656.16;5065477;28;20071;-81
2023/07/30 07:48:00;;;;;;;5.28;1.65;;;;;;;14.37;100.00;99649.84;5063347;28;20058;-80
2023/07/30 07:50:26;;;;;;;8.77;1.67;;;;;;;14.35;100.00;99643.06;5084978;28;20537;-81
2023/07/30 07:52:52;;;;;;;14.20;2.20;;;;;;;14.39;100.00;99660.28;5066112;28;20508;-81
2023/07/30 07:55:17;;;;;;;6.20;1.70;;;;;;;14.39;100.00;99661.09;5079166;28;20036;-81
2023/07/30 07:57:43;;;;;;;6.65;1.75;;;;;;;14.41;100.00;99658.25;5082286;28;20390;-81
2023/07/30 08:00:09;;;;;;;10.93;2.38;;;;;;;14.43;100.00;99658.06;5076527;28;20048;-81
2023/07/30 08:02:37;;;;;;;10.15;2.33;;;;;;;14.41;100.00;99658.25;5080678;28;20044;-80
2023/07/30 08:05:03;;;;;;;17.48;2.92;;;;;;;14.46;100.00;99653.19;5080376;28;20025;-80
2023/07/30 08:07:29;;;;;;;12.30;3.03;;;;;;;14.47;100.00;99656.66;5083793;28;20040;-81
2023/07/30 08:09:55;;;;;;;11.00;2.28;;;;;;;14.46;100.00;99655.84;5084246;28;20094;-79
2023/07/30 08:12:21;;;;;;;10.20;2.67;;;;;;;14.46;100.00;99663.81;5085030;28;20059;-79
2023/07/30 08:14:47;;;;;;;12.18;2.08;;;;;;;14.46;100.00;99671.00;5083053;28;20469;-81
2023/07/30 08:17:12;;;;;;;16.67;3.15;;;;;;;14.42;100.00;99667.88;5083414;28;20394;-80
2023/07/30 08:19:38;;;;;;;8.95;2.80;;;;;;;14.44;100.00;99663.19;5059760;28;20028;-80
2023/07/30 08:22:04;;;;;;;14.13;2.80;;;;;;;14.45;100.00;99659.53;5055120;28;20176;-81
2023/07/30 08:24:30;;;;;;;11.52;2.45;;;;;;;14.50;100.00;99661.59;5082562;28;20028;-80
2023/07/30 08:26:55;;;;;;;10.00;2.45;;;;;;;14.52;100.00;99659.59;5073137;28;20043;-80
2023/07/30 08:29:21;;;;;;;12.63;2.30;;;;;;;14.55;100.00;99659.22;5082964;28;20031;-80
2023/07/30 08:31:47;;;;;;;12.43;2.28;;;;;;;14.60;100.00;99658.63;5107563;28;20028;-80
2023/07/30 08:34:13;;;;;;;9.55;2.22;;;;;;;14.59;100.00;99668.44;5091092;27;20110;-80
2023/07/30 08:36:39;;;;;;;9.38;2.40;;;;;;;14.59;100.00;99665.78;5068658;28;20099;-80
2023/07/30 08:39:05;;;;;;;17.63;2.95;;;;;;;14.54;100.00;99670.03;5091902;28;20032;-80
2023/07/30 08:41:31;;;;;;;11.38;3.05;;;;;;;14.52;100.00;99673.69;5068281;28;20039;-80
2023/07/30 08:43:58;;;;;;;9.25;2.30;;;;;;;14.56;100.00;99676.81;5072469;28;20027;-80
2023/07/30 08:46:25;;;;;;;12.68;2.42;;;;;;;14.52;100.00;99678.19;5070896;28;20047;-80
2023/07/30 08:48:51;;;;;;;11.95;2.70;;;;;;;14.50;100.00;99677.56;5095971;28;20088;-80
2023/07/30 08:51:17;;;;;;;10.63;2.40;;;;;;;14.47;100.00;99675.28;5084498;28;20557;-81
2023/07/30 08:53:43;;;;;;;10.18;2.30;;;;;;;14.46;100.00;99684.28;5086861;28;20032;-80
2023/07/30 08:56:09;;;;;;;13.25;2.60;;;;;;;14.45;100.00;99678.13;5104216;28;20031;-81
2023/07/30 08:58:35;;;;;;;14.35;2.92;;;;;;;14.48;100.00;99691.03;5086589;28;20044;-81
2023/07/30 09:01:05;;;;;;;10.60;2.38;;;;;;;14.50;100.00;99673.06;5085683;28;20432;-81
2023/07/30 09:03:35;;;;;;;15.50;4.32;;;;;;;14.52;100.00;99676.34;5084911;28;20038;-81
2023/07/30 09:06:02;;;;;;;11.80;2.90;;;;;;;14.55;100.00;99677.81;5069187;28;20040;-81
2023/07/30 09:08:28;;;;;;;12.43;2.50;;;;;;;14.58;100.00;99671.28;5071047;28;20057;-81
2023/07/30 09:10:54;;;;;;;12.57;2.70;;;;;;;14.60;100.00;99671.94;5089504;28;20374;-80
2023/07/30 09:13:23;;;;;;;15.88;2.92;;;;;;;14.55;100.00;99675.16;5082054;28;20031;-81
2023/07/30 09:15:52;;;;;;;15.63;3.22;;;;;;;14.54;100.00;99684.13;5071609;28;20043;-81
2023/07/30 09:18:18;;;;;;;9.75;2.90;;;;;;;14.53;100.00;99674.53;5087407;28;20151;-82
2023/07/30 09:20:44;;;;;;;14.23;2.65;;;;;;;14.55;100.00;99679.66;5090856;28;20040;-81
2023/07/30 09:23:12;;;;;;;11.15;2.30;;;;;;;14.59;100.00;99672.94;5087896;28;20039;-81
2023/07/30 09:25:38;;;;;;;14.40;2.63;;;;;;;14.56;100.00;99674.16;5079556;28;20031;-81
2023/07/30 09:28:06;;;;;;;9.52;2.22;;;;;;;14.57;100.00;99667.81;5061531;28;20035;-81
2023/07/30 09:30:33;;;;;;;9.45;2.72;;;;;;;14.56;100.00;99665.34;5073655;28;20485;-81
2023/07/30 09:32:59;;;;;;;14.07;2.33;;;;;;;14.52;100.00;99668.38;5088098;28;20123;-81
2023/07/30 09:35:26;;;;;;;8.60;2.42;;;;;;;14.53;100.00;99669.22;5083597;28;20041;-81
2023/07/30 09:38:01;;;;;;;8.52;2.78;;;;;;;14.54;100.00;99664.72;5095443;28;20039;-81
2023/07/30 09:40:33;;;;;;;17.33;3.10;;;;;;;14.55;100.00;99663.69;5078936;28;20085;-81
2023/07/30 09:42:59;;;;;;;14.07;3.03;;;;;;;14.52;100.00;99662.25;5087946;28;20027;-81
2023/07/30 09:45:25;;;;;;;16.25;3.25;;;;;;;14.54;100.00;99660.19;5070513;28;20118;-81
2023/07/30 09:47:53;;;;;;;11.68;2.90;;;;;;;14.51;100.00;99652.59;5092543;28;20497;-81
2023/07/30 09:50:19;;;;;;;9.45;2.97;;;;;;;14.49;100.00;99654.66;5087918;28;20110;-81
2023/07/30 09:52:46;;;;;;;13.25;2.53;;;;;;;14.48;100.00;99658.31;5104099;27;20035;-81
2023/07/30 09:55:12;;;;;;;8.05;2.03;;;;;;;14.47;100.00;99662.00;5085963;28;20504;-81
2023/07/30 09:57:38;;;;;;;7.63;2.40;;;;;;;14.46;100.00;99657.69;5076432;28;20560;-81
2023/07/30 10:00:06;;;;;;;9.52;2.50;;;;;;;14.41;100.00;99660.91;5087436;28;20430;-80
2023/07/30 10:02:43;;;;;;;7.40;2.58;;;;;;;14.41;100.00;99654.78;5058693;28;20043;-81
2023/07/30 10:05:19;;;;;;;5.28;2.22;;;;;;;14.39;100.00;99652.31;5061768;27;20245;-80
2023/07/30 10:07:58;;;;;;;6.97;2.25;;;;;;;14.38;100.00;99661.31;5034168;28;20168;-81
2023/07/30 10:10:28;;;;;;;6.38;2.03;;;;;;;14.37;100.00;99660.47;5027625;28;20033;-82
2023/07/30 10:12:58;;;;;;;9.38;2.90;;;;;;;14.38;100.00;99658.66;5032434;28;20067;-81
2023/07/30 10:15:25;;;;;;;11.80;2.60;;;;;;;14.37;100.00;99655.16;5016567;28;20091;-81
2023/07/30 10:17:51;;;;;;;7.82;2.53;;;;;;;14.36;100.00;99658.00;5026059;28;20053;-81
2023/07/30 10:20:26;;;;;;;7.85;2.40;;;;;;;14.45;100.00;99653.38;5026629;28;20036;-81
2023/07/30 10:22:53;;;;;;;9.50;2.35;;;;;;;14.46;100.00;99661.16;5010154;28;20036;-81
2023/07/30 10:25:28;;;;;;;6.97;2.30;;;;;;;14.52;100.00;99660.41;5030627;28;20044;-81
2023/07/30 10:27:54;;;;;;;4.63;2.05;;;;;;;14.50;100.00;99654.47;5009476;28;20701;-81
2023/07/30 10:30:21;;;;;;;10.48;2.78;;;;;;;14.48;100.00;99651.16;5028408;28;20037;-81
2023/07/30 10:32:57;;;;;;;9.52;2.38;;;;;;;14.53;100.00;99655.91;5041340;28;20037;-81
2023/07/30 10:35:37;;;;;;;6.93;2.05;;;;;;;14.51;100.00;99652.59;4992040;28;20128;-81
2023/07/30 10:38:28;;;;;;;9.13;2.17;;;;;;;14.49;100.00;99650.13;5008336;28;20076;-81
2023/07/30 10:41:01;;;;;;;7.15;2.22;;;;;;;14.49;100.00;99658.13;5027207;28;20039;-81
2023/07/30 10:43:33;;;;;;;6.47;1.88;;;;;;;14.48;100.00;99645.00;5027544;28;20030;-81
2023/07/30 10:46:00;;;;;;;9.93;2.05;;;;;;;14.44;100.00;99649.06;5031388;28;20071;-81
2023/07/30 10:48:40;;;;;;;6.78;2.63;;;;;;;14.46;100.00;99644.41;5033090;28;20041;-81
2023/07/30 10:51:11;;;;;;;5.78;1.95;;;;;;;14.45;100.00;99648.06;5028160;28;20495;-81
2023/07/30 10:53:37;;;;;;;7.50;2.03;;;;;;;14.48;100.00;99647.66;5010409;28;20053;-81
2023/07/30 10:56:04;;;;;;;8.52;2.40;;;;;;;14.54;100.00;99646.91;5046355;28;20036;-81
2023/07/30 10:58:31;;;;;;;5.60;2.15;;;;;;;14.57;100.00;99651.84;5008287;28;20049;-81
2023/07/30 11:00:58;;;;;;;5.20;2.42;;;;;;;14.60;100.00;99646.19;5030267;28;20024;-81
2023/07/30 11:03:26;;;;;;;13.02;8.30;;;;;;;14.62;100.00;99638.00;5011298;28;20033;-81
2023/07/30 11:05:53;;;;;;;22.95;10.15;;;;;;;14.63;100.00;99640.47;5056384;28;20091;-81
2023/07/30 11:08:19;;;;;;;25.42;18.40;;;;;;;14.64;100.00;99642.09;5027387;28;20082;-81
2023/07/30 11:10:46;;;;;;;7.18;3.88;;;;;;;14.66;100.00;99633.94;5013712;28;20047;-81
2023/07/30 11:13:13;;;;;;;21.38;14.85;;;;;;;14.74;100.00;99625.00;5046207;28;20067;-81
2023/07/30 11:15:44;;;;;;;6.53;2.67;;;;;;;14.74;100.00;99622.34;5025019;28;20515;-80
2023/07/30 11:18:12;;;;;;;7.60;2.13;;;;;;;14.74;100.00;99625.00;5045541;28;20494;-81
2023/07/30 11:20:39;;;;;;;4.55;2.20;;;;;;;14.78;100.00;99626.25;5033428;28;20484;-81